Churchill, Canada
Current Conditions -  °F | °C
As of 4:00 PM on Sunday 23 Nov 2014 (Local Time) from CYYQ Reporting Station
Ice Pellets Ice Pellets  
Wind Chill: -29°   Ceiling: Unl
Heat Index: -13°   Visibility: 15mi
Dew Point: -18°   Wind: 7mph
Humidity: 77%   Direction: 250°WSW
Pressure: 29.98"   Gusts: NA
Location:  58.75°N, 94.06°W
Report Text: CYYQ 232200Z 25006KT 15SM IC FEW270 M25/M28 A2998 RMK CI1 SLP156
Loading
Personal Weather Stations






























Interactive Weather Map New forecast layout! Learn more

10-Day Weather Forecast

Advertisements
Track Severe Weather on mobile